sensor_id;sensor_type;location;lat;lon;timestamp;P1;durP1;ratioP1;P2;durP2;ratioP2
50104;SDS011;47690;39.202;-77.198;2023-01-25T00:00:01;1.70;;;1.60;;
50104;SDS011;47690;39.202;-77.198;2023-01-25T00:03:59;1.70;;;1.60;;
50104;SDS011;47690;39.202;-77.198;2023-01-25T00:07:55;2.13;;;1.77;;
50104;SDS011;47690;39.202;-77.198;2023-01-25T00:11:20;1.98;;;1.83;;
50104;SDS011;47690;39.202;-77.198;2023-01-25T00:14:20;2.28;;;2.00;;
50104;SDS011;47690;39.202;-77.198;2023-01-25T00:18:45;2.20;;;2.00;;
50104;SDS011;47690;39.202;-77.198;2023-01-25T00:22:44;3.00;;;2.40;;
50104;SDS011;47690;39.202;-77.198;2023-01-25T00:26:00;2.85;;;2.40;;
50104;SDS011;47690;39.202;-77.198;2023-01-25T00:28:54;4.40;;;2.45;;
50104;SDS011;47690;39.202;-77.198;2023-01-25T00:31:53;2.95;;;2.35;;
50104;SDS011;47690;39.202;-77.198;2023-01-25T00:35:45;1.88;;;1.77;;
50104;SDS011;47690;39.202;-77.198;2023-01-25T00:39:12;2.13;;;1.92;;
50104;SDS011;47690;39.202;-77.198;2023-01-25T00:42:14;2.25;;;1.90;;
50104;SDS011;47690;39.202;-77.198;2023-01-25T01:06:40;1.90;;;1.80;;
50104;SDS011;47690;39.202;-77.198;2023-01-25T01:10:49;2.60;;;1.95;;
50104;SDS011;47690;39.202;-77.198;2023-01-25T01:14:30;2.22;;;1.90;;
50104;SDS011;47690;39.202;-77.198;2023-01-25T01:21:54;2.00;;;1.80;;
50104;SDS011;47690;39.202;-77.198;2023-01-25T01:41:14;3.22;;;1.70;;
50104;SDS011;47690;39.202;-77.198;2023-01-25T01:48:04;2.40;;;1.95;;
50104;SDS011;47690;39.202;-77.198;2023-01-25T01:50:40;2.00;;;1.80;;
50104;SDS011;47690;39.202;-77.198;2023-01-25T01:53:15;1.95;;;1.80;;
50104;SDS011;47690;39.202;-77.198;2023-01-25T01:55:48;2.30;;;1.90;;
50104;SDS011;47690;39.202;-77.198;2023-01-25T01:58:21;2.03;;;1.73;;
50104;SDS011;47690;39.202;-77.198;2023-01-25T02:00:59;2.45;;;2.00;;
50104;SDS011;47690;39.202;-77.198;2023-01-25T02:03:32;2.75;;;2.17;;
50104;SDS011;47690;39.202;-77.198;2023-01-25T02:06:14;2.17;;;1.90;;
50104;SDS011;47690;39.202;-77.198;2023-01-25T02:08:51;2.22;;;1.85;;
50104;SDS011;47690;39.202;-77.198;2023-01-25T02:11:25;2.60;;;2.20;;
50104;SDS011;47690;39.202;-77.198;2023-01-25T02:14:01;2.08;;;1.88;;
50104;SDS011;47690;39.202;-77.198;2023-01-25T02:16:36;2.65;;;2.13;;
50104;SDS011;47690;39.202;-77.198;2023-01-25T02:19:14;2.10;;;1.90;;
50104;SDS011;47690;39.202;-77.198;2023-01-25T02:22:01;2.53;;;1.90;;
50104;SDS011;47690;39.202;-77.198;2023-01-25T02:30:53;2.40;;;1.92;;
50104;SDS011;47690;39.202;-77.198;2023-01-25T02:33:45;2.40;;;2.20;;
50104;SDS011;47690;39.202;-77.198;2023-01-25T02:36:20;3.45;;;2.13;;
50104;SDS011;47690;39.202;-77.198;2023-01-25T02:39:03;3.10;;;2.15;;
50104;SDS011;47690;39.202;-77.198;2023-01-25T02:41:53;2.47;;;2.15;;
50104;SDS011;47690;39.202;-77.198;2023-01-25T02:44:33;2.47;;;2.22;;
50104;SDS011;47690;39.202;-77.198;2023-01-25T02:47:13;3.25;;;2.25;;
50104;SDS011;47690;39.202;-77.198;2023-01-25T02:49:49;2.88;;;2.30;;
50104;SDS011;47690;39.202;-77.198;2023-01-25T02:52:32;2.50;;;2.30;;
50104;SDS011;47690;39.202;-77.198;2023-01-25T02:55:08;2.50;;;2.10;;
50104;SDS011;47690;39.202;-77.198;2023-01-25T02:57:41;2.53;;;2.00;;
50104;SDS011;47690;39.202;-77.198;2023-01-25T03:00:17;2.00;;;1.80;;
50104;SDS011;47690;39.202;-77.198;2023-01-25T03:02:51;2.70;;;2.10;;
50104;SDS011;47690;39.202;-77.198;2023-01-25T03:05:29;2.45;;;2.03;;
50104;SDS011;47690;39.202;-77.198;2023-01-25T03:08:06;2.65;;;2.10;;
50104;SDS011;47690;39.202;-77.198;2023-01-25T03:10:41;3.15;;;2.10;;
50104;SDS011;47690;39.202;-77.198;2023-01-25T03:13:11;2.15;;;1.77;;
50104;SDS011;47690;39.202;-77.198;2023-01-25T03:15:41;2.47;;;2.05;;
50104;SDS011;47690;39.202;-77.198;2023-01-25T03:18:15;2.35;;;2.00;;
50104;SDS011;47690;39.202;-77.198;2023-01-25T03:20:48;2.10;;;1.90;;
50104;SDS011;47690;39.202;-77.198;2023-01-25T03:23:19;2.90;;;1.98;;
50104;SDS011;47690;39.202;-77.198;2023-01-25T03:25:50;2.30;;;2.10;;
50104;SDS011;47690;39.202;-77.198;2023-01-25T03:28:20;2.50;;;2.10;;
50104;SDS011;47690;39.202;-77.198;2023-01-25T03:30:59;2.10;;;1.90;;
50104;SDS011;47690;39.202;-77.198;2023-01-25T03:33:32;2.88;;;2.22;;
50104;SDS011;47690;39.202;-77.198;2023-01-25T03:36:04;1.98;;;1.77;;
50104;SDS011;47690;39.202;-77.198;2023-01-25T03:38:38;2.45;;;2.10;;
50104;SDS011;47690;39.202;-77.198;2023-01-25T03:41:11;2.30;;;2.10;;
50104;SDS011;47690;39.202;-77.198;2023-01-25T03:46:17;2.10;;;1.92;;
50104;SDS011;47690;39.202;-77.198;2023-01-25T03:48:50;2.10;;;1.90;;
50104;SDS011;47690;39.202;-77.198;2023-01-25T03:51:21;2.97;;;2.22;;
50104;SDS011;47690;39.202;-77.198;2023-01-25T03:54:00;2.65;;;2.17;;
50104;SDS011;47690;39.202;-77.198;2023-01-25T03:56:34;2.60;;;2.40;;
50104;SDS011;47690;39.202;-77.198;2023-01-25T03:59:25;2.90;;;2.50;;
50104;SDS011;47690;39.202;-77.198;2023-01-25T04:02:08;2.63;;;2.08;;
50104;SDS011;47690;39.202;-77.198;2023-01-25T04:04:40;2.65;;;2.17;;
50104;SDS011;47690;39.202;-77.198;2023-01-25T04:07:14;3.08;;;2.30;;
50104;SDS011;47690;39.202;-77.198;2023-01-25T04:09:45;3.38;;;2.30;;
50104;SDS011;47690;39.202;-77.198;2023-01-25T04:12:17;3.75;;;2.40;;
50104;SDS011;47690;39.202;-77.198;2023-01-25T04:14:49;4.28;;;2.47;;
50104;SDS011;47690;39.202;-77.198;2023-01-25T04:17:26;3.33;;;2.40;;
50104;SDS011;47690;39.202;-77.198;2023-01-25T04:20:08;5.57;;;2.70;;
50104;SDS011;47690;39.202;-77.198;2023-01-25T04:22:41;3.00;;;2.53;;
50104;SDS011;47690;39.202;-77.198;2023-01-25T04:25:10;2.67;;;2.15;;
50104;SDS011;47690;39.202;-77.198;2023-01-25T04:27:46;3.53;;;2.47;;
50104;SDS011;47690;39.202;-77.198;2023-01-25T04:30:20;3.30;;;2.60;;
50104;SDS011;47690;39.202;-77.198;2023-01-25T04:32:51;2.60;;;2.25;;
50104;SDS011;47690;39.202;-77.198;2023-01-25T04:35:30;4.88;;;2.40;;
50104;SDS011;47690;39.202;-77.198;2023-01-25T04:38:03;2.90;;;2.50;;
50104;SDS011;47690;39.202;-77.198;2023-01-25T04:40:38;2.90;;;2.45;;
50104;SDS011;47690;39.202;-77.198;2023-01-25T04:43:14;2.80;;;2.20;;
50104;SDS011;47690;39.202;-77.198;2023-01-25T04:45:46;2.58;;;2.20;;
50104;SDS011;47690;39.202;-77.198;2023-01-25T04:48:30;3.47;;;2.30;;
50104;SDS011;47690;39.202;-77.198;2023-01-25T04:51:06;2.88;;;2.50;;
50104;SDS011;47690;39.202;-77.198;2023-01-25T04:53:37;4.13;;;2.70;;
50104;SDS011;47690;39.202;-77.198;2023-01-25T04:56:09;2.83;;;2.45;;
50104;SDS011;47690;39.202;-77.198;2023-01-25T04:58:47;3.65;;;2.58;;
50104;SDS011;47690;39.202;-77.198;2023-01-25T05:01:17;3.05;;;2.33;;
50104;SDS011;47690;39.202;-77.198;2023-01-25T05:03:48;3.95;;;2.80;;
50104;SDS011;47690;39.202;-77.198;2023-01-25T05:09:08;3.33;;;2.35;;
50104;SDS011;47690;39.202;-77.198;2023-01-25T05:11:41;2.65;;;2.40;;
50104;SDS011;47690;39.202;-77.198;2023-01-25T05:14:25;3.40;;;2.40;;
50104;SDS011;47690;39.202;-77.198;2023-01-25T05:17:00;3.60;;;2.55;;
50104;SDS011;47690;39.202;-77.198;2023-01-25T05:19:30;3.80;;;2.30;;
50104;SDS011;47690;39.202;-77.198;2023-01-25T05:22:10;3.90;;;2.42;;
50104;SDS011;47690;39.202;-77.198;2023-01-25T05:24:48;3.22;;;2.50;;
50104;SDS011;47690;39.202;-77.198;2023-01-25T05:27:20;2.92;;;2.33;;
50104;SDS011;47690;39.202;-77.198;2023-01-25T05:29:56;2.88;;;2.25;;
50104;SDS011;47690;39.202;-77.198;2023-01-25T05:32:49;3.33;;;2.35;;
50104;SDS011;47690;39.202;-77.198;2023-01-25T05:35:29;2.90;;;2.30;;
50104;SDS011;47690;39.202;-77.198;2023-01-25T05:38:02;3.35;;;2.30;;
50104;SDS011;47690;39.202;-77.198;2023-01-25T05:40:35;2.25;;;2.05;;
50104;SDS011;47690;39.202;-77.198;2023-01-25T05:43:08;2.80;;;2.15;;
50104;SDS011;47690;39.202;-77.198;2023-01-25T05:45:40;3.42;;;2.15;;
50104;SDS011;47690;39.202;-77.198;2023-01-25T05:48:12;3.63;;;2.67;;
50104;SDS011;47690;39.202;-77.198;2023-01-25T05:50:43;3.40;;;2.38;;
50104;SDS011;47690;39.202;-77.198;2023-01-25T05:53:23;2.60;;;2.38;;
50104;SDS011;47690;39.202;-77.198;2023-01-25T05:56:04;3.28;;;2.50;;
50104;SDS011;47690;39.202;-77.198;2023-01-25T05:58:36;2.95;;;2.30;;
50104;SDS011;47690;39.202;-77.198;2023-01-25T06:01:08;3.35;;;2.80;;
50104;SDS011;47690;39.202;-77.198;2023-01-25T06:03:46;3.47;;;2.65;;
50104;SDS011;47690;39.202;-77.198;2023-01-25T06:06:17;4.13;;;2.47;;
50104;SDS011;47690;39.202;-77.198;2023-01-25T06:08:49;3.38;;;2.50;;
50104;SDS011;47690;39.202;-77.198;2023-01-25T06:11:22;3.92;;;2.58;;
50104;SDS011;47690;39.202;-77.198;2023-01-25T06:14:00;3.28;;;2.58;;
50104;SDS011;47690;39.202;-77.198;2023-01-25T06:16:33;2.90;;;2.35;;
50104;SDS011;47690;39.202;-77.198;2023-01-25T06:19:24;3.38;;;2.45;;
50104;SDS011;47690;39.202;-77.198;2023-01-25T06:22:14;2.70;;;2.30;;
50104;SDS011;47690;39.202;-77.198;2023-01-25T06:24:47;2.65;;;2.28;;
50104;SDS011;47690;39.202;-77.198;2023-01-25T06:27:19;3.42;;;2.53;;
50104;SDS011;47690;39.202;-77.198;2023-01-25T06:29:49;3.53;;;2.40;;
50104;SDS011;47690;39.202;-77.198;2023-01-25T06:32:21;2.88;;;2.25;;
50104;SDS011;47690;39.202;-77.198;2023-01-25T06:34:55;2.80;;;2.15;;
50104;SDS011;47690;39.202;-77.198;2023-01-25T06:37:29;2.80;;;2.33;;
50104;SDS011;47690;39.202;-77.198;2023-01-25T06:40:00;2.78;;;2.55;;
50104;SDS011;47690;39.202;-77.198;2023-01-25T06:42:31;3.72;;;2.35;;
50104;SDS011;47690;39.202;-77.198;2023-01-25T06:45:01;2.42;;;2.08;;
50104;SDS011;47690;39.202;-77.198;2023-01-25T06:47:31;3.13;;;2.40;;
50104;SDS011;47690;39.202;-77.198;2023-01-25T06:50:01;3.25;;;2.50;;
50104;SDS011;47690;39.202;-77.198;2023-01-25T06:52:32;3.15;;;2.30;;
50104;SDS011;47690;39.202;-77.198;2023-01-25T06:55:06;2.55;;;2.30;;
50104;SDS011;47690;39.202;-77.198;2023-01-25T06:57:41;2.58;;;2.20;;
50104;SDS011;47690;39.202;-77.198;2023-01-25T07:00:13;2.72;;;2.33;;
50104;SDS011;47690;39.202;-77.198;2023-01-25T07:02:47;3.65;;;2.25;;
50104;SDS011;47690;39.202;-77.198;2023-01-25T07:05:17;4.45;;;2.60;;
50104;SDS011;47690;39.202;-77.198;2023-01-25T07:07:46;2.40;;;2.10;;
50104;SDS011;47690;39.202;-77.198;2023-01-25T07:10:15;3.72;;;2.50;;
50104;SDS011;47690;39.202;-77.198;2023-01-25T07:12:45;3.63;;;2.75;;
50104;SDS011;47690;39.202;-77.198;2023-01-25T07:15:17;2.50;;;2.30;;
50104;SDS011;47690;39.202;-77.198;2023-01-25T07:17:46;2.63;;;2.33;;
50104;SDS011;47690;39.202;-77.198;2023-01-25T07:20:16;3.13;;;2.50;;
50104;SDS011;47690;39.202;-77.198;2023-01-25T07:22:46;2.92;;;2.25;;
50104;SDS011;47690;39.202;-77.198;2023-01-25T07:25:17;2.78;;;2.30;;
50104;SDS011;47690;39.202;-77.198;2023-01-25T07:27:47;2.72;;;2.38;;
50104;SDS011;47690;39.202;-77.198;2023-01-25T07:30:17;3.28;;;2.53;;
50104;SDS011;47690;39.202;-77.198;2023-01-25T07:32:49;3.00;;;2.38;;
50104;SDS011;47690;39.202;-77.198;2023-01-25T07:35:19;4.25;;;2.35;;
50104;SDS011;47690;39.202;-77.198;2023-01-25T07:37:49;2.53;;;2.17;;
50104;SDS011;47690;39.202;-77.198;2023-01-25T07:40:19;3.15;;;2.20;;
50104;SDS011;47690;39.202;-77.198;2023-01-25T07:43:00;3.13;;;2.40;;
50104;SDS011;47690;39.202;-77.198;2023-01-25T07:45:32;3.13;;;2.33;;
50104;SDS011;47690;39.202;-77.198;2023-01-25T07:48:07;3.72;;;2.60;;
50104;SDS011;47690;39.202;-77.198;2023-01-25T07:50:40;3.03;;;2.40;;
50104;SDS011;47690;39.202;-77.198;2023-01-25T07:53:10;3.97;;;2.55;;
50104;SDS011;47690;39.202;-77.198;2023-01-25T07:55:42;3.08;;;2.60;;
50104;SDS011;47690;39.202;-77.198;2023-01-25T07:58:15;3.03;;;2.30;;
50104;SDS011;47690;39.202;-77.198;2023-01-25T08:00:45;3.53;;;2.50;;
50104;SDS011;47690;39.202;-77.198;2023-01-25T08:03:18;4.03;;;2.90;;
50104;SDS011;47690;39.202;-77.198;2023-01-25T08:05:50;3.67;;;2.90;;
50104;SDS011;47690;39.202;-77.198;2023-01-25T08:08:46;4.55;;;3.15;;
50104;SDS011;47690;39.202;-77.198;2023-01-25T08:11:46;4.50;;;2.95;;
50104;SDS011;47690;39.202;-77.198;2023-01-25T08:14:21;3.67;;;2.75;;
50104;SDS011;47690;39.202;-77.198;2023-01-25T08:17:02;3.75;;;2.83;;
50104;SDS011;47690;39.202;-77.198;2023-01-25T08:19:34;4.57;;;3.20;;
50104;SDS011;47690;39.202;-77.198;2023-01-25T08:22:08;4.28;;;2.97;;
50104;SDS011;47690;39.202;-77.198;2023-01-25T08:24:37;3.67;;;2.95;;
50104;SDS011;47690;39.202;-77.198;2023-01-25T08:27:13;3.17;;;2.40;;
50104;SDS011;47690;39.202;-77.198;2023-01-25T08:29:47;3.50;;;2.80;;
50104;SDS011;47690;39.202;-77.198;2023-01-25T08:32:18;4.00;;;2.80;;
50104;SDS011;47690;39.202;-77.198;2023-01-25T08:34:49;3.53;;;2.85;;
50104;SDS011;47690;39.202;-77.198;2023-01-25T08:37:20;4.00;;;2.92;;
50104;SDS011;47690;39.202;-77.198;2023-01-25T08:39:49;3.90;;;2.90;;
50104;SDS011;47690;39.202;-77.198;2023-01-25T08:42:26;3.92;;;3.08;;
50104;SDS011;47690;39.202;-77.198;2023-01-25T08:45:00;3.75;;;2.78;;
50104;SDS011;47690;39.202;-77.198;2023-01-25T08:47:31;3.67;;;2.78;;
50104;SDS011;47690;39.202;-77.198;2023-01-25T08:50:01;4.30;;;3.20;;
50104;SDS011;47690;39.202;-77.198;2023-01-25T08:52:33;4.30;;;3.20;;
50104;SDS011;47690;39.202;-77.198;2023-01-25T08:55:04;3.78;;;2.85;;
50104;SDS011;47690;39.202;-77.198;2023-01-25T08:57:35;4.90;;;3.38;;
50104;SDS011;47690;39.202;-77.198;2023-01-25T09:00:07;4.10;;;3.08;;
50104;SDS011;47690;39.202;-77.198;2023-01-25T09:02:41;4.57;;;3.28;;
50104;SDS011;47690;39.202;-77.198;2023-01-25T09:05:11;4.10;;;2.85;;
50104;SDS011;47690;39.202;-77.198;2023-01-25T09:07:41;3.97;;;3.00;;
50104;SDS011;47690;39.202;-77.198;2023-01-25T09:10:15;3.42;;;2.45;;
50104;SDS011;47690;39.202;-77.198;2023-01-25T09:12:46;3.85;;;2.83;;
50104;SDS011;47690;39.202;-77.198;2023-01-25T09:15:17;3.72;;;2.83;;
50104;SDS011;47690;39.202;-77.198;2023-01-25T09:17:50;4.50;;;3.30;;
50104;SDS011;47690;39.202;-77.198;2023-01-25T09:20:22;3.97;;;3.13;;
50104;SDS011;47690;39.202;-77.198;2023-01-25T09:23:03;3.45;;;2.70;;
50104;SDS011;47690;39.202;-77.198;2023-01-25T09:25:33;3.92;;;2.65;;
50104;SDS011;47690;39.202;-77.198;2023-01-25T09:28:07;3.35;;;2.85;;
50104;SDS011;47690;39.202;-77.198;2023-01-25T09:30:40;4.75;;;3.28;;
50104;SDS011;47690;39.202;-77.198;2023-01-25T09:33:31;4.53;;;3.50;;
50104;SDS011;47690;39.202;-77.198;2023-01-25T09:36:05;4.97;;;3.25;;
50104;SDS011;47690;39.202;-77.198;2023-01-25T09:38:37;3.97;;;3.08;;
50104;SDS011;47690;39.202;-77.198;2023-01-25T09:47:08;4.05;;;3.20;;
50104;SDS011;47690;39.202;-77.198;2023-01-25T09:50:10;4.43;;;3.15;;
50104;SDS011;47690;39.202;-77.198;2023-01-25T09:53:01;4.82;;;3.30;;
50104;SDS011;47690;39.202;-77.198;2023-01-25T09:55:56;6.13;;;3.47;;
50104;SDS011;47690;39.202;-77.198;2023-01-25T09:58:37;4.32;;;3.08;;
50104;SDS011;47690;39.202;-77.198;2023-01-25T10:02:00;5.00;;;3.53;;
50104;SDS011;47690;39.202;-77.198;2023-01-25T10:04:23;4.45;;;3.17;;
50104;SDS011;47690;39.202;-77.198;2023-01-25T10:07:03;4.45;;;3.28;;
50104;SDS011;47690;39.202;-77.198;2023-01-25T10:10:43;3.38;;;2.85;;
50104;SDS011;47690;39.202;-77.198;2023-01-25T10:13:07;5.22;;;3.40;;
50104;SDS011;47690;39.202;-77.198;2023-01-25T10:15:42;4.50;;;3.17;;
50104;SDS011;47690;39.202;-77.198;2023-01-25T10:21:34;5.40;;;3.85;;
50104;SDS011;47690;39.202;-77.198;2023-01-25T10:30:27;6.45;;;4.68;;
50104;SDS011;47690;39.202;-77.198;2023-01-25T10:33:21;5.47;;;4.07;;
50104;SDS011;47690;39.202;-77.198;2023-01-25T10:36:03;6.63;;;4.65;;
50104;SDS011;47690;39.202;-77.198;2023-01-25T10:41:21;5.13;;;3.63;;
50104;SDS011;47690;39.202;-77.198;2023-01-25T10:44:46;4.80;;;3.67;;
50104;SDS011;47690;39.202;-77.198;2023-01-25T10:47:34;5.43;;;3.53;;
50104;SDS011;47690;39.202;-77.198;2023-01-25T10:50:53;4.13;;;3.20;;
50104;SDS011;47690;39.202;-77.198;2023-01-25T10:54:25;4.18;;;3.35;;
50104;SDS011;47690;39.202;-77.198;2023-01-25T10:57:01;4.72;;;3.65;;
50104;SDS011;47690;39.202;-77.198;2023-01-25T10:59:37;4.53;;;3.03;;
50104;SDS011;47690;39.202;-77.198;2023-01-25T11:06:01;4.43;;;3.25;;
50104;SDS011;47690;39.202;-77.198;2023-01-25T11:09:05;4.15;;;3.22;;
50104;SDS011;47690;39.202;-77.198;2023-01-25T11:12:02;4.15;;;3.00;;
50104;SDS011;47690;39.202;-77.198;2023-01-25T11:14:49;4.70;;;3.42;;
50104;SDS011;47690;39.202;-77.198;2023-01-25T11:17:29;4.90;;;3.42;;
50104;SDS011;47690;39.202;-77.198;2023-01-25T11:20:18;4.85;;;3.63;;
50104;SDS011;47690;39.202;-77.198;2023-01-25T11:22:53;5.93;;;3.03;;
50104;SDS011;47690;39.202;-77.198;2023-01-25T11:25:37;4.65;;;3.45;;
50104;SDS011;47690;39.202;-77.198;2023-01-25T11:28:34;4.35;;;3.35;;
50104;SDS011;47690;39.202;-77.198;2023-01-25T11:31:19;5.20;;;3.55;;
50104;SDS011;47690;39.202;-77.198;2023-01-25T11:33:51;4.40;;;3.28;;
50104;SDS011;47690;39.202;-77.198;2023-01-25T11:56:56;4.65;;;3.45;;
50104;SDS011;47690;39.202;-77.198;2023-01-25T12:03:57;6.38;;;3.53;;
50104;SDS011;47690;39.202;-77.198;2023-01-25T12:17:15;5.88;;;3.83;;
50104;SDS011;47690;39.202;-77.198;2023-01-25T12:24:46;4.63;;;3.35;;
50104;SDS011;47690;39.202;-77.198;2023-01-25T12:35:48;5.03;;;2.90;;
50104;SDS011;47690;39.202;-77.198;2023-01-25T12:42:48;4.78;;;3.30;;
50104;SDS011;47690;39.202;-77.198;2023-01-25T12:54:59;4.80;;;3.22;;
50104;SDS011;47690;39.202;-77.198;2023-01-25T12:57:57;4.18;;;3.20;;
50104;SDS011;47690;39.202;-77.198;2023-01-25T13:01:27;4.85;;;3.25;;
50104;SDS011;47690;39.202;-77.198;2023-01-25T13:05:47;4.82;;;3.13;;
50104;SDS011;47690;39.202;-77.198;2023-01-25T13:34:05;4.50;;;3.17;;
50104;SDS011;47690;39.202;-77.198;2023-01-25T13:37:55;4.40;;;3.28;;
50104;SDS011;47690;39.202;-77.198;2023-01-25T13:42:25;3.95;;;3.00;;
50104;SDS011;47690;39.202;-77.198;2023-01-25T13:45:26;5.05;;;3.40;;
50104;SDS011;47690;39.202;-77.198;2023-01-25T13:57:26;3.53;;;3.05;;
50104;SDS011;47690;39.202;-77.198;2023-01-25T14:01:00;3.53;;;3.00;;
50104;SDS011;47690;39.202;-77.198;2023-01-25T14:04:05;4.53;;;3.50;;
50104;SDS011;47690;39.202;-77.198;2023-01-25T14:06:54;4.70;;;3.47;;
50104;SDS011;47690;39.202;-77.198;2023-01-25T14:10:26;5.28;;;3.80;;
50104;SDS011;47690;39.202;-77.198;2023-01-25T14:13:23;5.90;;;3.58;;
50104;SDS011;47690;39.202;-77.198;2023-01-25T14:20:37;3.92;;;3.05;;
50104;SDS011;47690;39.202;-77.198;2023-01-25T14:23:42;4.82;;;3.67;;
50104;SDS011;47690;39.202;-77.198;2023-01-25T14:27:02;4.35;;;3.28;;
50104;SDS011;47690;39.202;-77.198;2023-01-25T14:30:34;4.07;;;3.08;;
50104;SDS011;47690;39.202;-77.198;2023-01-25T14:38:20;4.80;;;3.33;;
50104;SDS011;47690;39.202;-77.198;2023-01-25T14:41:42;5.10;;;3.10;;
50104;SDS011;47690;39.202;-77.198;2023-01-25T14:45:11;4.57;;;3.28;;
50104;SDS011;47690;39.202;-77.198;2023-01-25T14:51:43;4.90;;;3.15;;
50104;SDS011;47690;39.202;-77.198;2023-01-25T14:54:28;4.97;;;3.33;;
50104;SDS011;47690;39.202;-77.198;2023-01-25T15:02:43;4.47;;;2.85;;
50104;SDS011;47690;39.202;-77.198;2023-01-25T15:05:45;4.13;;;3.03;;
50104;SDS011;47690;39.202;-77.198;2023-01-25T15:11:42;4.70;;;3.50;;
50104;SDS011;47690;39.202;-77.198;2023-01-25T15:14:46;5.38;;;3.78;;
50104;SDS011;47690;39.202;-77.198;2023-01-25T15:21:50;3.53;;;3.00;;
50104;SDS011;47690;39.202;-77.198;2023-01-25T15:28:30;5.47;;;3.42;;
50104;SDS011;47690;39.202;-77.198;2023-01-25T15:31:19;5.22;;;3.85;;
50104;SDS011;47690;39.202;-77.198;2023-01-25T15:34:30;4.75;;;3.50;;
50104;SDS011;47690;39.202;-77.198;2023-01-25T15:37:17;4.85;;;3.38;;
50104;SDS011;47690;39.202;-77.198;2023-01-25T15:43:18;3.83;;;2.80;;
50104;SDS011;47690;39.202;-77.198;2023-01-25T15:52:49;4.45;;;3.38;;
50104;SDS011;47690;39.202;-77.198;2023-01-25T15:59:52;4.93;;;3.60;;
50104;SDS011;47690;39.202;-77.198;2023-01-25T16:02:34;6.50;;;3.95;;
50104;SDS011;47690;39.202;-77.198;2023-01-25T16:05:49;5.65;;;3.65;;
50104;SDS011;47690;39.202;-77.198;2023-01-25T16:15:22;4.18;;;2.83;;
50104;SDS011;47690;39.202;-77.198;2023-01-25T16:19:43;5.28;;;3.40;;
50104;SDS011;47690;39.202;-77.198;2023-01-25T16:25:41;3.92;;;3.20;;
50104;SDS011;47690;39.202;-77.198;2023-01-25T16:31:02;4.82;;;3.15;;
50104;SDS011;47690;39.202;-77.198;2023-01-25T16:57:51;3.95;;;2.92;;
50104;SDS011;47690;39.202;-77.198;2023-01-25T17:02:10;4.70;;;3.40;;
50104;SDS011;47690;39.202;-77.198;2023-01-25T17:07:05;4.35;;;3.20;;
50104;SDS011;47690;39.202;-77.198;2023-01-25T17:09:50;4.60;;;3.33;;
50104;SDS011;47690;39.202;-77.198;2023-01-25T17:14:50;4.20;;;3.10;;
50104;SDS011;47690;39.202;-77.198;2023-01-25T17:45:29;4.43;;;3.08;;
50104;SDS011;47690;39.202;-77.198;2023-01-25T17:57:28;3.83;;;3.13;;
50104;SDS011;47690;39.202;-77.198;2023-01-25T18:04:46;5.05;;;3.58;;
50104;SDS011;47690;39.202;-77.198;2023-01-25T18:07:22;5.47;;;4.00;;
50104;SDS011;47690;39.202;-77.198;2023-01-25T18:09:55;6.53;;;4.30;;
50104;SDS011;47690;39.202;-77.198;2023-01-25T18:12:37;6.60;;;4.13;;
50104;SDS011;47690;39.202;-77.198;2023-01-25T18:15:34;5.82;;;4.03;;
50104;SDS011;47690;39.202;-77.198;2023-01-25T18:18:19;5.30;;;3.95;;
50104;SDS011;47690;39.202;-77.198;2023-01-25T18:21:34;4.95;;;3.53;;
50104;SDS011;47690;39.202;-77.198;2023-01-25T18:24:24;5.47;;;3.83;;
50104;SDS011;47690;39.202;-77.198;2023-01-25T18:27:05;5.07;;;3.90;;
50104;SDS011;47690;39.202;-77.198;2023-01-25T18:29:58;5.65;;;3.92;;
50104;SDS011;47690;39.202;-77.198;2023-01-25T18:32:46;6.15;;;4.00;;
50104;SDS011;47690;39.202;-77.198;2023-01-25T18:35:33;6.47;;;4.03;;
50104;SDS011;47690;39.202;-77.198;2023-01-25T18:38:09;4.90;;;3.70;;
50104;SDS011;47690;39.202;-77.198;2023-01-25T18:40:49;5.60;;;4.18;;
50104;SDS011;47690;39.202;-77.198;2023-01-25T18:43:34;5.53;;;3.90;;
50104;SDS011;47690;39.202;-77.198;2023-01-25T18:46:14;6.00;;;4.10;;
50104;SDS011;47690;39.202;-77.198;2023-01-25T18:49:33;5.07;;;3.80;;
50104;SDS011;47690;39.202;-77.198;2023-01-25T18:52:19;4.90;;;3.97;;
50104;SDS011;47690;39.202;-77.198;2023-01-25T18:54:54;4.78;;;3.72;;
50104;SDS011;47690;39.202;-77.198;2023-01-25T18:57:33;6.20;;;3.97;;
50104;SDS011;47690;39.202;-77.198;2023-01-25T19:00:50;4.93;;;3.83;;
50104;SDS011;47690;39.202;-77.198;2023-01-25T19:03:34;5.80;;;4.18;;
50104;SDS011;47690;39.202;-77.198;2023-01-25T19:06:08;6.18;;;4.57;;
50104;SDS011;47690;39.202;-77.198;2023-01-25T19:08:43;6.35;;;4.22;;
50104;SDS011;47690;39.202;-77.198;2023-01-25T19:11:17;5.10;;;3.85;;
50104;SDS011;47690;39.202;-77.198;2023-01-25T19:13:47;4.30;;;3.65;;
50104;SDS011;47690;39.202;-77.198;2023-01-25T19:16:18;5.50;;;3.85;;
50104;SDS011;47690;39.202;-77.198;2023-01-25T19:18:52;5.65;;;4.07;;
50104;SDS011;47690;39.202;-77.198;2023-01-25T19:21:24;6.70;;;4.82;;
50104;SDS011;47690;39.202;-77.198;2023-01-25T19:23:56;7.00;;;4.40;;
50104;SDS011;47690;39.202;-77.198;2023-01-25T19:26:33;6.38;;;4.65;;
50104;SDS011;47690;39.202;-77.198;2023-01-25T19:29:08;5.32;;;4.10;;
50104;SDS011;47690;39.202;-77.198;2023-01-25T19:31:43;5.28;;;4.10;;
50104;SDS011;47690;39.202;-77.198;2023-01-25T19:34:15;5.57;;;4.00;;
50104;SDS011;47690;39.202;-77.198;2023-01-25T19:36:44;5.05;;;3.97;;
50104;SDS011;47690;39.202;-77.198;2023-01-25T19:39:18;6.05;;;4.43;;
50104;SDS011;47690;39.202;-77.198;2023-01-25T19:41:49;5.22;;;3.47;;
50104;SDS011;47690;39.202;-77.198;2023-01-25T19:44:20;5.20;;;3.70;;
50104;SDS011;47690;39.202;-77.198;2023-01-25T19:46:52;4.75;;;3.38;;
50104;SDS011;47690;39.202;-77.198;2023-01-25T19:49:21;5.32;;;3.88;;
50104;SDS011;47690;39.202;-77.198;2023-01-25T19:51:53;4.38;;;3.60;;
50104;SDS011;47690;39.202;-77.198;2023-01-25T19:54:22;4.78;;;3.40;;
50104;SDS011;47690;39.202;-77.198;2023-01-25T19:56:53;3.80;;;3.00;;
50104;SDS011;47690;39.202;-77.198;2023-01-25T19:59:30;4.28;;;3.33;;
50104;SDS011;47690;39.202;-77.198;2023-01-25T20:02:02;3.95;;;3.05;;
50104;SDS011;47690;39.202;-77.198;2023-01-25T20:04:34;3.92;;;3.00;;
50104;SDS011;47690;39.202;-77.198;2023-01-25T20:07:07;4.43;;;3.22;;
50104;SDS011;47690;39.202;-77.198;2023-01-25T20:09:42;4.32;;;3.17;;
50104;SDS011;47690;39.202;-77.198;2023-01-25T20:12:14;3.92;;;3.30;;
50104;SDS011;47690;39.202;-77.198;2023-01-25T20:14:45;3.55;;;2.90;;
50104;SDS011;47690;39.202;-77.198;2023-01-25T20:17:14;3.40;;;2.85;;
50104;SDS011;47690;39.202;-77.198;2023-01-25T20:19:45;2.80;;;2.50;;
50104;SDS011;47690;39.202;-77.198;2023-01-25T20:22:15;3.08;;;2.67;;
50104;SDS011;47690;39.202;-77.198;2023-01-25T20:24:44;3.38;;;2.72;;
50104;SDS011;47690;39.202;-77.198;2023-01-25T20:27:13;4.00;;;2.60;;
50104;SDS011;47690;39.202;-77.198;2023-01-25T20:29:42;2.78;;;2.47;;
50104;SDS011;47690;39.202;-77.198;2023-01-25T20:32:11;4.18;;;2.55;;
50104;SDS011;47690;39.202;-77.198;2023-01-25T20:34:58;2.80;;;2.40;;
50104;SDS011;47690;39.202;-77.198;2023-01-25T20:37:30;2.95;;;2.47;;
50104;SDS011;47690;39.202;-77.198;2023-01-25T20:40:00;3.35;;;2.60;;
50104;SDS011;47690;39.202;-77.198;2023-01-25T20:42:29;2.88;;;2.40;;
50104;SDS011;47690;39.202;-77.198;2023-01-25T20:44:59;2.67;;;2.28;;
50104;SDS011;47690;39.202;-77.198;2023-01-25T20:47:28;2.25;;;2.05;;
50104;SDS011;47690;39.202;-77.198;2023-01-25T20:49:58;2.45;;;2.10;;
50104;SDS011;47690;39.202;-77.198;2023-01-25T20:52:28;2.53;;;2.20;;
50104;SDS011;47690;39.202;-77.198;2023-01-25T20:54:57;2.15;;;1.95;;
50104;SDS011;47690;39.202;-77.198;2023-01-25T20:57:26;2.28;;;1.92;;